createdAt,value
2023-04-26T00:00:12.012Z,1.98
2023-04-26T00:01:14.842Z,2.63
2023-04-26T00:02:18.353Z,1.33
2023-04-26T00:03:20.803Z,1.30
2023-04-26T00:04:22.850Z,1.27
2023-04-26T00:05:26.011Z,0.88
2023-04-26T00:06:27.710Z,2.00
2023-04-26T00:07:30.703Z,1.38
2023-04-26T00:08:32.429Z,1.52
2023-04-26T00:09:34.150Z,0.88
2023-04-26T00:10:35.902Z,0.93
2023-04-26T00:11:37.635Z,1.30
2023-04-26T00:12:41.827Z,1.00
2023-04-26T00:13:43.599Z,1.27
2023-04-26T00:14:45.520Z,1.13
2023-04-26T00:15:47.201Z,1.20
2023-04-26T00:16:49.212Z,1.67
2023-04-26T00:17:51.255Z,1.20
2023-04-26T00:18:53.341Z,1.25
2023-04-26T00:19:57.615Z,1.20
2023-04-26T00:20:59.396Z,1.38
2023-04-26T00:22:01.289Z,1.17
2023-04-26T00:23:03.199Z,2.88
2023-04-26T00:24:06.978Z,1.85
2023-04-26T00:25:09.330Z,1.15
2023-04-26T00:26:11.200Z,1.20
2023-04-26T00:27:12.938Z,0.90
2023-04-26T00:28:14.735Z,1.45
2023-04-26T00:29:16.449Z,1.60
2023-04-26T00:30:18.247Z,2.05
2023-04-26T00:31:20.047Z,1.40
2023-04-26T00:32:21.788Z,1.88
2023-04-26T00:33:24.411Z,1.10
2023-04-26T00:34:32.522Z,1.20
2023-04-26T00:35:34.244Z,1.30
2023-04-26T00:36:35.991Z,2.35
2023-04-26T00:37:37.750Z,1.10
2023-04-26T00:38:39.457Z,1.38
2023-04-26T00:39:41.160Z,0.90
2023-04-26T00:40:42.836Z,0.80
2023-04-26T00:41:44.511Z,1.13
2023-04-26T00:42:46.253Z,1.13
2023-04-26T00:43:47.941Z,0.85
2023-04-26T00:44:50.454Z,1.00
2023-04-26T00:45:52.502Z,0.95
2023-04-26T00:46:54.704Z,0.60
2023-04-26T00:47:56.769Z,0.88
2023-04-26T00:48:58.689Z,0.90
2023-04-26T00:50:02.084Z,0.77
2023-04-26T00:51:05.750Z,0.60
2023-04-26T00:52:08.045Z,1.58
2023-04-26T00:53:10.789Z,0.73
2023-04-26T00:54:13.617Z,1.10
2023-04-26T00:55:16.781Z,0.60
2023-04-26T00:56:19.571Z,0.77
2023-04-26T00:57:22.447Z,0.70
2023-04-26T00:58:24.357Z,0.63
2023-04-26T00:59:27.135Z,0.70
2023-04-26T01:00:29.821Z,0.90
2023-04-26T01:01:31.566Z,0.70
2023-04-26T01:02:33.575Z,0.70
2023-04-26T01:03:35.773Z,0.77
2023-04-26T01:04:37.897Z,1.02
2023-04-26T01:05:39.646Z,0.70
2023-04-26T01:06:42.064Z,0.90
2023-04-26T01:07:44.268Z,2.90
2023-04-26T01:08:46.102Z,1.05
2023-04-26T01:09:49.218Z,1.10
2023-04-26T01:10:51.214Z,1.50
2023-04-26T01:11:53.615Z,1.83
2023-04-26T01:12:56.071Z,0.98
2023-04-26T01:13:58.421Z,1.13
2023-04-26T01:15:01.091Z,1.27
2023-04-26T01:16:03.328Z,1.00
2023-04-26T01:17:06.318Z,1.00
2023-04-26T01:18:08.509Z,3.15
2023-04-26T01:19:12.570Z,1.30
2023-04-26T01:20:14.938Z,1.17
2023-04-26T01:21:21.922Z,0.90
2023-04-26T01:22:23.656Z,0.77
2023-04-26T01:23:25.533Z,2.92
2023-04-26T01:24:27.319Z,0.60
2023-04-26T01:25:29.372Z,0.45
2023-04-26T01:26:32.188Z,0.70
2023-04-26T01:27:33.887Z,0.50
2023-04-26T01:28:35.843Z,0.70
2023-04-26T01:29:37.654Z,0.50
2023-04-26T01:30:39.393Z,0.60
2023-04-26T01:31:41.137Z,1.10
2023-04-26T01:32:42.888Z,1.13
2023-04-26T01:33:44.624Z,0.70
2023-04-26T01:34:46.708Z,0.70
2023-04-26T01:35:48.397Z,0.60
2023-04-26T01:36:50.134Z,1.10
2023-04-26T01:37:51.836Z,0.80
2023-04-26T01:38:53.749Z,0.70
2023-04-26T01:39:55.943Z,1.13
2023-04-26T01:40:57.648Z,0.60
2023-04-26T01:41:59.474Z,0.88
2023-04-26T01:43:03.305Z,1.33
2023-04-26T01:44:05.382Z,1.27
2023-04-26T01:45:07.572Z,1.10
2023-04-26T01:46:09.299Z,1.25
2023-04-26T01:47:11.008Z,1.70
2023-04-26T01:48:12.719Z,1.98
2023-04-26T01:49:14.445Z,1.73
2023-04-26T01:50:16.455Z,1.75
2023-04-26T01:51:18.205Z,1.10
2023-04-26T01:52:19.944Z,2.22
2023-04-26T01:53:21.833Z,2.10
2023-04-26T01:54:23.539Z,1.77
2023-04-26T01:55:25.240Z,1.40
2023-04-26T01:56:27.051Z,1.17
2023-04-26T01:57:28.797Z,1.33
2023-04-26T01:58:30.552Z,0.77
2023-04-26T01:59:32.338Z,2.58
2023-04-26T02:00:34.044Z,2.00
2023-04-26T02:01:35.851Z,2.28
2023-04-26T02:02:37.776Z,1.35
2023-04-26T02:03:39.790Z,0.93
2023-04-26T02:04:41.555Z,0.90
2023-04-26T02:05:43.299Z,0.80
2023-04-26T02:06:45.198Z,0.93
2023-04-26T02:07:47.008Z,1.98
2023-04-26T02:08:49.548Z,1.30
2023-04-26T02:09:51.669Z,1.00
2023-04-26T02:10:53.416Z,1.20
2023-04-26T02:11:55.136Z,1.30
2023-04-26T02:12:56.883Z,2.60
2023-04-26T02:13:58.710Z,1.08
2023-04-26T02:15:00.413Z,1.40
2023-04-26T02:16:02.263Z,0.98
2023-04-26T02:17:04.947Z,0.93
2023-04-26T02:18:07.237Z,1.13
2023-04-26T02:19:11.096Z,1.52
2023-04-26T02:20:13.050Z,1.23
2023-04-26T02:21:18.441Z,1.67
2023-04-26T02:22:21.350Z,4.43
2023-04-26T02:23:24.359Z,1.30
2023-04-26T02:24:26.274Z,0.88
2023-04-26T02:25:27.982Z,1.45
2023-04-26T02:26:29.724Z,1.52
2023-04-26T02:27:31.875Z,1.20
2023-04-26T02:28:33.569Z,2.47
2023-04-26T02:29:43.772Z,1.63
2023-04-26T02:31:48.876Z,1.50
2023-04-26T02:32:51.058Z,1.40
2023-04-26T02:33:52.774Z,1.50
2023-04-26T02:34:54.529Z,3.25
2023-04-26T02:35:56.234Z,2.78
2023-04-26T02:36:57.924Z,1.55
2023-04-26T02:37:59.622Z,1.42
2023-04-26T02:39:01.751Z,1.30
2023-04-26T02:40:05.607Z,2.33
2023-04-26T02:41:07.298Z,2.25
2023-04-26T02:42:10.711Z,2.40
2023-04-26T02:43:12.454Z,1.52
2023-04-26T02:44:14.154Z,2.30
2023-04-26T02:45:16.055Z,5.30
2023-04-26T02:46:18.134Z,7.20
2023-04-26T02:47:19.952Z,6.45
2023-04-26T02:48:21.730Z,6.70
2023-04-26T02:49:23.586Z,5.63
2023-04-26T02:50:25.321Z,4.68
2023-04-26T02:51:27.221Z,3.25
2023-04-26T02:52:28.910Z,2.95
2023-04-26T02:53:30.863Z,1.80
2023-04-26T02:54:32.594Z,2.17
2023-04-26T02:55:34.298Z,4.50
2023-04-26T02:56:36.053Z,2.03
2023-04-26T02:57:37.736Z,1.50
2023-04-26T02:58:39.466Z,1.73
2023-04-26T02:59:41.468Z,2.10
2023-04-26T03:00:47.973Z,1.63
2023-04-26T03:01:49.897Z,2.55
2023-04-26T03:02:52.226Z,1.60
2023-04-26T03:03:54.901Z,2.05
2023-04-26T03:04:56.703Z,1.27
2023-04-26T03:05:58.625Z,1.33
2023-04-26T03:07:00.541Z,1.30
2023-04-26T03:08:02.230Z,1.30
2023-04-26T03:09:05.712Z,1.40
2023-04-26T03:10:09.912Z,1.30
2023-04-26T03:11:12.053Z,2.55
2023-04-26T03:12:13.798Z,2.03
2023-04-26T03:13:15.614Z,1.92
2023-04-26T03:14:18.056Z,2.63
2023-04-26T03:15:19.801Z,1.98
2023-04-26T03:16:23.926Z,1.90
2023-04-26T03:17:26.079Z,1.27
2023-04-26T03:18:27.842Z,1.58
2023-04-26T03:19:29.618Z,2.08
2023-04-26T03:20:32.097Z,2.08
2023-04-26T03:21:34.019Z,1.50
2023-04-26T03:22:35.966Z,1.40
2023-04-26T03:23:37.677Z,2.17
2023-04-26T03:24:39.363Z,1.38
2023-04-26T03:25:41.236Z,1.40
2023-04-26T03:26:43.600Z,1.58
2023-04-26T03:27:45.328Z,1.58
2023-04-26T03:28:47.050Z,1.83
2023-04-26T03:29:48.747Z,2.63
2023-04-26T03:30:50.533Z,2.42
2023-04-26T03:31:52.439Z,2.63
2023-04-26T03:32:54.890Z,1.52
2023-04-26T03:33:56.637Z,4.20
2023-04-26T03:34:58.763Z,2.15
2023-04-26T03:36:00.548Z,2.40
2023-04-26T03:37:03.417Z,2.50
2023-04-26T03:38:05.129Z,6.35
2023-04-26T03:39:06.954Z,2.38
2023-04-26T03:40:09.631Z,2.15
2023-04-26T03:41:11.332Z,1.75
2023-04-26T03:42:13.066Z,1.70
2023-04-26T03:43:14.882Z,2.03
2023-04-26T03:44:16.649Z,3.38
2023-04-26T03:45:18.742Z,2.17
2023-04-26T03:46:20.644Z,1.52
2023-04-26T03:47:22.413Z,2.33
2023-04-26T03:48:24.162Z,1.80
2023-04-26T03:49:25.859Z,2.10
2023-04-26T03:50:27.576Z,3.13
2023-04-26T03:51:29.375Z,1.90
2023-04-26T03:52:31.102Z,1.90
2023-04-26T03:53:32.987Z,2.05
2023-04-26T03:54:35.097Z,2.25
2023-04-26T03:55:36.987Z,2.08
2023-04-26T03:56:40.096Z,2.67
2023-04-26T03:57:41.778Z,2.10
2023-04-26T03:58:43.484Z,1.65
2023-04-26T03:59:45.230Z,4.15
2023-04-26T04:00:48.680Z,3.45
2023-04-26T04:01:50.466Z,1.60
2023-04-26T04:02:52.329Z,1.67
2023-04-26T04:03:54.493Z,2.00
2023-04-26T04:04:57.351Z,1.95
2023-04-26T04:05:59.240Z,1.77
2023-04-26T04:07:01.080Z,1.92
2023-04-26T04:08:03.168Z,1.95
2023-04-26T04:09:06.071Z,4.10
2023-04-26T04:10:08.205Z,1.95
2023-04-26T04:11:09.942Z,2.83
2023-04-26T04:12:11.693Z,2.35
2023-04-26T04:13:13.400Z,2.28
2023-04-26T04:14:15.157Z,2.08
2023-04-26T04:15:18.959Z,2.58
2023-04-26T04:16:20.754Z,2.00
2023-04-26T04:17:22.801Z,2.35
2023-04-26T04:18:24.567Z,2.00
2023-04-26T04:19:26.334Z,1.63
2023-04-26T04:20:28.055Z,2.92
2023-04-26T04:21:29.826Z,1.88
2023-04-26T04:22:31.529Z,1.98
2023-04-26T04:23:33.267Z,3.85
2023-04-26T04:24:34.936Z,1.95
2023-04-26T04:25:36.834Z,1.50
2023-04-26T04:26:39.270Z,1.85
2023-04-26T04:27:45.312Z,1.80
2023-04-26T04:28:47.451Z,1.30
2023-04-26T04:29:49.214Z,1.70
2023-04-26T04:30:51.024Z,2.22
2023-04-26T04:31:52.781Z,1.85
2023-04-26T04:32:54.564Z,2.53
2023-04-26T04:33:56.287Z,2.13
2023-04-26T04:34:58.909Z,2.45
2023-04-26T04:36:00.656Z,2.75
2023-04-26T04:37:02.396Z,5.18
2023-04-26T04:38:04.425Z,1.73
2023-04-26T04:39:12.400Z,3.75
2023-04-26T04:40:14.286Z,1.85
2023-04-26T04:41:16.958Z,2.40
2023-04-26T04:42:19.073Z,2.05
2023-04-26T04:43:21.604Z,2.20
2023-04-26T04:44:24.385Z,2.83
2023-04-26T04:45:26.102Z,2.53
2023-04-26T04:46:27.911Z,3.67
2023-04-26T04:47:29.690Z,2.58
2023-04-26T04:48:31.451Z,5.93
2023-04-26T04:49:33.151Z,4.47
2023-04-26T04:50:36.051Z,4.40
2023-04-26T04:51:37.914Z,4.60
2023-04-26T04:52:39.608Z,2.28
2023-04-26T04:53:41.321Z,3.38
2023-04-26T04:54:43.100Z,2.92
2023-04-26T04:55:45.042Z,3.92
2023-04-26T04:56:46.932Z,2.55
2023-04-26T04:57:48.674Z,8.85
2023-04-26T04:58:50.680Z,3.40
2023-04-26T04:59:52.554Z,6.18
2023-04-26T05:00:55.724Z,4.07
2023-04-26T05:01:57.510Z,2.20
2023-04-26T05:02:59.341Z,3.38
2023-04-26T05:04:01.864Z,1.80
2023-04-26T05:05:05.290Z,1.75
2023-04-26T05:06:08.187Z,3.05
2023-04-26T05:07:09.958Z,5.05
2023-04-26T05:08:11.759Z,3.55
2023-04-26T05:09:13.651Z,2.20
2023-04-26T05:10:15.789Z,3.25
2023-04-26T05:11:17.510Z,3.25
2023-04-26T05:12:19.192Z,2.65
2023-04-26T05:13:20.874Z,4.10
2023-04-26T05:14:22.637Z,2.95
2023-04-26T05:15:24.364Z,1.85
2023-04-26T05:16:26.288Z,3.00
2023-04-26T05:17:28.046Z,3.38
2023-04-26T05:18:29.770Z,1.95
2023-04-26T05:19:32.110Z,1.98
2023-04-26T05:20:34.311Z,1.58
2023-04-26T05:21:36.108Z,3.83
2023-04-26T05:22:39.790Z,2.00
2023-04-26T05:23:41.845Z,3.25
2023-04-26T05:24:43.783Z,3.17
2023-04-26T05:25:45.610Z,3.60
2023-04-26T05:26:47.429Z,2.28
2023-04-26T05:27:49.255Z,2.78
2023-04-26T05:28:51.191Z,1.63
2023-04-26T05:29:52.869Z,1.88
2023-04-26T05:30:54.550Z,2.05
2023-04-26T05:31:56.863Z,2.83
2023-04-26T05:32:58.736Z,2.53
2023-04-26T05:34:00.561Z,1.55
2023-04-26T05:35:02.797Z,2.67
2023-04-26T05:36:04.884Z,4.40
2023-04-26T05:37:06.965Z,1.58
2023-04-26T05:38:09.186Z,2.83
2023-04-26T05:39:12.506Z,3.45
2023-04-26T05:40:14.300Z,1.55
2023-04-26T05:41:16.149Z,1.60
2023-04-26T05:42:18.185Z,2.13
2023-04-26T05:43:20.063Z,1.38
2023-04-26T05:44:21.824Z,1.58
2023-04-26T05:45:23.746Z,1.52
2023-04-26T05:46:25.570Z,1.48
2023-04-26T05:47:27.462Z,3.65
2023-04-26T05:48:30.013Z,2.13
2023-04-26T05:49:31.771Z,2.25
2023-04-26T05:50:33.473Z,2.63
2023-04-26T05:51:35.229Z,1.70
2023-04-26T05:52:36.954Z,1.60
2023-04-26T05:53:38.742Z,3.45
2023-04-26T05:54:40.614Z,1.75
2023-04-26T05:55:43.086Z,3.30
2023-04-26T05:56:45.294Z,3.13
2023-04-26T05:57:47.146Z,1.83
2023-04-26T05:58:49.035Z,3.00
2023-04-26T05:59:50.830Z,2.35
2023-04-26T06:00:52.691Z,1.48
2023-04-26T06:01:54.381Z,1.50
2023-04-26T06:02:56.292Z,1.77
2023-04-26T06:04:00.866Z,1.42
2023-04-26T06:05:03.595Z,1.85
2023-04-26T06:06:05.810Z,2.92
2023-04-26T06:07:07.528Z,1.50
2023-04-26T06:08:10.587Z,1.67
2023-04-26T06:09:12.349Z,1.67
2023-04-26T06:10:14.084Z,1.70
2023-04-26T06:11:16.348Z,1.30
2023-04-26T06:12:18.080Z,2.10
2023-04-26T06:13:19.815Z,1.30
2023-04-26T06:14:30.000Z,1.42
2023-04-26T06:15:32.308Z,3.58
2023-04-26T06:16:34.121Z,1.38
2023-04-26T06:17:35.914Z,1.30
2023-04-26T06:18:37.644Z,1.50
2023-04-26T06:19:39.338Z,1.63
2023-04-26T06:20:41.214Z,1.55
2023-04-26T06:21:42.962Z,1.58
2023-04-26T06:22:44.660Z,2.13
2023-04-26T06:23:46.902Z,2.42
2023-04-26T06:24:48.711Z,1.15
2023-04-26T06:25:50.486Z,1.95
2023-04-26T06:26:52.789Z,3.78
2023-04-26T06:27:54.845Z,1.75
2023-04-26T06:28:56.550Z,1.70
2023-04-26T06:29:58.272Z,1.70
2023-04-26T06:31:00.005Z,1.75
2023-04-26T06:32:01.779Z,1.20
2023-04-26T06:33:03.586Z,1.40
2023-04-26T06:34:05.349Z,3.97
2023-04-26T06:35:07.578Z,1.70
2023-04-26T06:36:12.965Z,1.00
2023-04-26T06:37:14.849Z,3.13
2023-04-26T06:38:16.590Z,3.03
2023-04-26T06:39:18.352Z,2.13
2023-04-26T06:40:20.173Z,2.33
2023-04-26T06:41:22.580Z,1.30
2023-04-26T06:42:24.322Z,1.70
2023-04-26T06:43:26.255Z,2.92
2023-04-26T06:44:27.970Z,1.98
2023-04-26T06:45:30.036Z,3.08
2023-04-26T06:46:31.781Z,1.52
2023-04-26T06:47:33.548Z,2.20
2023-04-26T06:48:35.754Z,3.40
2023-04-26T06:49:37.564Z,2.22
2023-04-26T06:50:40.259Z,1.92
2023-04-26T06:51:41.980Z,1.40
2023-04-26T06:52:43.693Z,4.40
2023-04-26T06:53:45.432Z,1.40
2023-04-26T06:54:56.505Z,4.00
2023-04-26T06:55:59.470Z,1.92
2023-04-26T06:57:01.622Z,2.75
2023-04-26T06:58:03.528Z,1.60
2023-04-26T06:59:06.969Z,2.67
2023-04-26T07:00:09.836Z,1.98
2023-04-26T07:01:11.560Z,1.40
2023-04-26T07:02:15.185Z,3.78
2023-04-26T07:03:17.743Z,3.53
2023-04-26T07:04:20.883Z,3.45
2023-04-26T07:05:23.289Z,1.48
2023-04-26T07:06:26.517Z,1.48
2023-04-26T07:07:28.382Z,1.65
2023-04-26T07:08:30.223Z,4.28
2023-04-26T07:09:31.960Z,2.42
2023-04-26T07:10:34.334Z,2.42
2023-04-26T07:11:36.165Z,1.40
2023-04-26T07:12:38.013Z,2.28
2023-04-26T07:13:42.548Z,1.55
2023-04-26T07:14:44.394Z,1.83
2023-04-26T07:15:46.099Z,1.65
2023-04-26T07:16:47.857Z,1.60
2023-04-26T07:17:49.635Z,1.85
2023-04-26T07:18:58.544Z,2.75
2023-04-26T07:20:00.432Z,1.90
2023-04-26T07:21:02.336Z,1.67
2023-04-26T07:22:04.877Z,1.90
2023-04-26T07:23:06.817Z,3.08
2023-04-26T07:24:08.775Z,2.47
2023-04-26T07:25:10.500Z,3.33
2023-04-26T07:26:12.263Z,4.45
2023-04-26T07:27:17.006Z,6.53
2023-04-26T07:28:18.739Z,4.03
2023-04-26T07:29:20.677Z,2.20
2023-04-26T07:30:22.541Z,2.00
2023-04-26T07:31:24.235Z,2.08
2023-04-26T07:32:26.011Z,3.58
2023-04-26T07:33:28.122Z,3.75
2023-04-26T07:34:29.917Z,2.20
2023-04-26T07:35:31.859Z,2.60
2023-04-26T07:36:33.619Z,3.58
2023-04-26T07:37:35.870Z,2.33
2023-04-26T07:38:39.356Z,2.58
2023-04-26T07:39:41.317Z,2.35
2023-04-26T07:40:43.551Z,2.30
2023-04-26T07:41:45.501Z,2.42
2023-04-26T07:42:47.190Z,3.35
2023-04-26T07:43:48.922Z,2.25
2023-04-26T07:44:50.682Z,2.42
2023-04-26T07:45:52.670Z,2.40
2023-04-26T07:46:54.637Z,4.63
2023-04-26T07:47:56.560Z,3.25
2023-04-26T07:48:58.264Z,2.30
2023-04-26T07:49:59.952Z,2.28
2023-04-26T07:51:09.179Z,3.00
2023-04-26T07:52:11.103Z,2.20
2023-04-26T07:53:12.998Z,2.17
2023-04-26T07:54:14.696Z,2.67
2023-04-26T07:55:17.674Z,3.05
2023-04-26T07:56:19.698Z,2.15
2023-04-26T07:57:21.429Z,2.13
2023-04-26T07:58:23.140Z,2.03
2023-04-26T07:59:24.946Z,5.45
2023-04-26T08:00:26.885Z,2.25
2023-04-26T08:01:29.233Z,3.05
2023-04-26T08:02:43.617Z,1.85
2023-04-26T08:03:47.880Z,2.15
2023-04-26T08:04:52.755Z,2.35
2023-04-26T08:05:55.369Z,2.70
2023-04-26T08:06:57.216Z,2.22
2023-04-26T08:07:59.031Z,2.05
2023-04-26T08:09:03.369Z,2.35
2023-04-26T08:10:05.690Z,2.15
2023-04-26T08:11:10.886Z,2.13
2023-04-26T08:12:12.826Z,2.20
2023-04-26T08:13:14.799Z,3.83
2023-04-26T08:14:16.803Z,2.03
2023-04-26T08:15:18.628Z,2.17
2023-04-26T08:16:20.343Z,2.28
2023-04-26T08:17:22.268Z,2.40
2023-04-26T08:18:24.009Z,3.65
2023-04-26T08:19:26.916Z,4.43
2023-04-26T08:20:28.624Z,2.53
2023-04-26T08:21:31.177Z,2.58
2023-04-26T08:22:32.866Z,2.20
2023-04-26T08:23:36.649Z,4.30
2023-04-26T08:24:38.393Z,4.70
2023-04-26T08:25:40.135Z,3.50
2023-04-26T08:26:41.876Z,3.53
2023-04-26T08:27:45.003Z,2.75
2023-04-26T08:28:46.759Z,2.85
2023-04-26T08:29:48.943Z,2.35
2023-04-26T08:30:50.780Z,2.35
2023-04-26T08:31:52.622Z,2.85
2023-04-26T08:32:54.414Z,2.25
2023-04-26T08:33:56.228Z,2.58
2023-04-26T08:34:58.014Z,3.20
2023-04-26T08:36:01.874Z,3.83
2023-04-26T08:37:03.590Z,2.90
2023-04-26T08:38:05.330Z,2.45
2023-04-26T08:39:07.983Z,3.95
2023-04-26T08:40:13.002Z,2.75
2023-04-26T08:41:17.950Z,3.50
2023-04-26T08:42:24.590Z,4.00
2023-04-26T08:43:28.010Z,4.47
2023-04-26T08:44:35.200Z,3.13
2023-04-26T08:45:41.010Z,2.60
2023-04-26T08:47:04.086Z,2.63
2023-04-26T08:48:11.928Z,2.92
2023-04-26T08:49:25.571Z,2.70
2023-04-26T08:50:30.116Z,2.72
2023-04-26T08:51:33.432Z,2.80
2023-04-26T08:52:35.664Z,3.10
2023-04-26T08:53:38.534Z,2.65
2023-04-26T08:54:41.576Z,3.03
2023-04-26T08:55:50.293Z,2.90
2023-04-26T08:56:52.579Z,2.85
2023-04-26T08:57:55.136Z,3.08
2023-04-26T08:58:57.083Z,2.50
2023-04-26T08:59:58.909Z,2.58
2023-04-26T09:01:03.586Z,2.72
2023-04-26T09:02:07.125Z,3.85
2023-04-26T09:03:09.716Z,3.40
2023-04-26T09:04:12.518Z,4.28
2023-04-26T09:05:14.787Z,2.40
2023-04-26T09:06:17.400Z,3.58
2023-04-26T09:07:22.272Z,2.63
2023-04-26T09:08:24.148Z,2.30
2023-04-26T09:09:29.487Z,2.95
2023-04-26T09:10:32.570Z,2.50
2023-04-26T09:12:00.490Z,4.00
2023-04-26T09:13:02.192Z,5.78
2023-04-26T09:14:03.890Z,3.83
2023-04-26T09:15:10.669Z,4.50
2023-04-26T09:16:12.436Z,3.20
2023-04-26T09:17:27.668Z,3.10
2023-04-26T09:18:31.387Z,2.83
2023-04-26T09:19:40.408Z,3.28
2023-04-26T09:20:42.186Z,2.40
2023-04-26T09:21:47.345Z,2.42
2023-04-26T09:22:53.423Z,3.75
2023-04-26T09:24:00.043Z,3.63
2023-04-26T09:25:07.334Z,2.72
2023-04-26T09:26:17.267Z,3.47
2023-04-26T09:27:19.726Z,3.50
2023-04-26T09:28:23.318Z,4.25
2023-04-26T09:29:25.072Z,3.20
2023-04-26T09:30:27.975Z,3.60
2023-04-26T09:31:39.072Z,5.50
2023-04-26T09:32:51.990Z,5.22
2023-04-26T09:34:00.740Z,4.70
2023-04-26T09:35:02.524Z,3.35
2023-04-26T09:36:13.583Z,2.65
2023-04-26T09:38:18.326Z,3.33
2023-04-26T09:39:49.519Z,3.22
2023-04-26T09:40:51.535Z,2.90
2023-04-26T09:41:53.378Z,2.40
2023-04-26T09:43:07.191Z,2.83
2023-04-26T09:44:21.878Z,2.92
2023-04-26T09:45:24.273Z,2.63
2023-04-26T09:46:26.249Z,3.88
2023-04-26T09:47:28.028Z,3.83
2023-04-26T09:48:32.966Z,2.80
2023-04-26T09:49:44.657Z,2.97
2023-04-26T09:50:46.830Z,6.35
2023-04-26T09:52:21.093Z,5.47
2023-04-26T09:53:45.407Z,5.82
2023-04-26T09:54:49.686Z,3.20
2023-04-26T09:55:51.519Z,2.95
2023-04-26T09:57:01.259Z,3.00
2023-04-26T09:58:10.870Z,2.38
2023-04-26T09:59:12.677Z,2.22
2023-04-26T10:00:15.441Z,3.80
2023-04-26T10:01:19.357Z,2.58
2023-04-26T10:02:23.845Z,3.00
2023-04-26T10:03:27.012Z,4.07
2023-04-26T10:04:28.956Z,2.55
2023-04-26T10:05:33.943Z,3.45
2023-04-26T10:06:36.159Z,2.85
2023-04-26T10:07:37.964Z,2.50
2023-04-26T10:08:39.826Z,3.88
2023-04-26T10:09:42.199Z,2.45
2023-04-26T10:10:44.256Z,4.20
2023-04-26T10:11:46.359Z,3.13
2023-04-26T10:12:48.372Z,3.90
2023-04-26T10:13:51.305Z,2.78
2023-04-26T10:14:53.158Z,3.13
2023-04-26T10:15:56.710Z,2.80
2023-04-26T10:16:58.726Z,5.70
2023-04-26T10:18:00.730Z,3.10
2023-04-26T10:19:02.745Z,3.78
2023-04-26T10:20:10.808Z,2.55
2023-04-26T10:21:21.565Z,3.38
2023-04-26T10:22:30.704Z,5.40
2023-04-26T10:23:33.409Z,2.95
2023-04-26T10:24:38.308Z,3.78
2023-04-26T10:25:42.500Z,2.65
2023-04-26T10:26:55.081Z,3.55
2023-04-26T10:27:57.013Z,3.28
2023-04-26T10:29:02.663Z,3.33
2023-04-26T10:30:07.906Z,4.25
2023-04-26T10:31:09.768Z,3.45
2023-04-26T10:32:16.663Z,3.28
2023-04-26T10:33:19.196Z,3.90
2023-04-26T10:34:21.893Z,3.33
2023-04-26T10:35:33.511Z,3.75
2023-04-26T10:37:11.521Z,5.45
2023-04-26T10:38:13.296Z,6.53
2023-04-26T10:39:23.479Z,12.80
2023-04-26T10:40:29.505Z,7.00
2023-04-26T10:41:33.968Z,6.35
2023-04-26T10:42:35.925Z,4.40
2023-04-26T10:43:42.956Z,3.95
2023-04-26T10:44:45.890Z,3.67
2023-04-26T10:45:48.960Z,3.65
2023-04-26T10:46:52.769Z,3.90
2023-04-26T10:48:20.517Z,5.43
2023-04-26T10:49:26.310Z,3.85
2023-04-26T10:50:28.274Z,5.20
2023-04-26T10:51:30.139Z,4.55
2023-04-26T10:53:02.033Z,3.45
2023-04-26T10:54:04.357Z,4.22
2023-04-26T10:55:07.028Z,4.18
2023-04-26T10:56:08.730Z,4.50
2023-04-26T10:57:10.464Z,5.63
2023-04-26T10:58:30.392Z,3.70
2023-04-26T10:59:43.401Z,5.40
2023-04-26T11:01:11.831Z,3.80
2023-04-26T11:02:13.924Z,3.75
2023-04-26T11:03:15.844Z,4.53
2023-04-26T11:04:17.813Z,3.60
2023-04-26T11:05:54.324Z,3.95
2023-04-26T11:06:58.088Z,3.67
2023-04-26T11:08:10.069Z,3.42
2023-04-26T11:09:37.926Z,3.70
2023-04-26T11:10:39.837Z,3.30
2023-04-26T11:11:53.567Z,3.42
2023-04-26T11:13:03.486Z,3.80
2023-04-26T11:14:06.011Z,4.32
2023-04-26T11:15:08.463Z,3.15
2023-04-26T11:16:12.365Z,5.35
2023-04-26T11:17:14.482Z,3.40
2023-04-26T11:18:19.955Z,4.78
2023-04-26T11:19:21.672Z,3.40
2023-04-26T11:20:28.442Z,3.28
2023-04-26T11:21:30.221Z,4.68
2023-04-26T11:22:32.025Z,6.85
2023-04-26T11:23:33.871Z,3.42
2023-04-26T11:24:45.010Z,3.58
2023-04-26T11:26:54.411Z,5.93
2023-04-26T11:28:03.345Z,4.13
2023-04-26T11:29:09.438Z,3.75
2023-04-26T11:30:11.914Z,3.72
2023-04-26T11:31:14.682Z,3.38
2023-04-26T11:32:16.602Z,4.28
2023-04-26T11:33:22.385Z,4.28
2023-04-26T11:34:31.771Z,3.25
2023-04-26T11:35:39.155Z,3.85
2023-04-26T11:36:40.968Z,6.50
2023-04-26T11:37:42.855Z,4.50
2023-04-26T11:38:44.612Z,4.10
2023-04-26T11:39:46.555Z,4.28
2023-04-26T11:41:01.674Z,6.10
2023-04-26T11:42:11.620Z,4.10
2023-04-26T11:43:13.941Z,3.55
2023-04-26T11:44:20.143Z,4.28
2023-04-26T11:45:21.905Z,5.47
2023-04-26T11:46:24.546Z,5.65
2023-04-26T11:47:33.388Z,3.80
2023-04-26T11:48:37.004Z,4.20
2023-04-26T11:49:39.276Z,3.42
2023-04-26T11:50:41.997Z,3.97
2023-04-26T11:51:48.140Z,4.30
2023-04-26T11:52:50.135Z,4.60
2023-04-26T11:53:52.582Z,3.25
2023-04-26T11:55:07.671Z,3.55
2023-04-26T11:56:20.021Z,4.97
2023-04-26T11:57:21.921Z,3.15
2023-04-26T11:58:23.732Z,5.30
2023-04-26T11:59:32.328Z,4.75
2023-04-26T12:00:34.130Z,3.20
2023-04-26T12:01:35.843Z,4.07
2023-04-26T12:02:37.816Z,4.18
2023-04-26T12:03:39.947Z,7.53
2023-04-26T12:04:42.238Z,4.45
2023-04-26T12:05:55.036Z,3.40
2023-04-26T12:06:57.963Z,5.57
2023-04-26T12:08:00.797Z,4.40
2023-04-26T12:09:05.976Z,4.65
2023-04-26T12:10:18.046Z,3.67
2023-04-26T12:11:20.210Z,4.65
2023-04-26T12:12:24.450Z,3.53
2023-04-26T12:13:26.193Z,3.50
2023-04-26T12:14:35.287Z,4.25
2023-04-26T12:15:37.092Z,6.00
2023-04-26T12:16:39.045Z,3.63
2023-04-26T12:17:41.005Z,3.53
2023-04-26T12:18:50.918Z,3.17
2023-04-26T12:19:56.153Z,2.40
2023-04-26T12:20:59.575Z,3.47
2023-04-26T12:22:01.292Z,2.90
2023-04-26T12:23:06.100Z,2.58
2023-04-26T12:24:08.111Z,2.20
2023-04-26T12:25:10.396Z,2.80
2023-04-26T12:26:12.254Z,2.88
2023-04-26T12:27:21.071Z,3.67
2023-04-26T12:28:24.029Z,3.10
2023-04-26T12:29:25.782Z,3.00
2023-04-26T12:30:28.965Z,4.75
2023-04-26T12:31:30.781Z,2.75
2023-04-26T12:32:32.609Z,3.15
2023-04-26T12:33:34.978Z,2.83
2023-04-26T12:34:36.703Z,2.70
2023-04-26T12:35:38.519Z,5.07
2023-04-26T12:36:46.556Z,2.95
2023-04-26T12:37:49.964Z,2.50
2023-04-26T12:38:52.198Z,3.55
2023-04-26T12:39:53.939Z,4.07
2023-04-26T12:40:56.026Z,3.60
2023-04-26T12:41:57.781Z,3.60
2023-04-26T12:42:59.616Z,4.45
2023-04-26T12:44:01.856Z,3.03
2023-04-26T12:45:06.905Z,2.65
2023-04-26T12:46:08.714Z,5.82
2023-04-26T12:47:10.996Z,2.75
2023-04-26T12:48:12.959Z,3.40
2023-04-26T12:49:14.860Z,2.97
2023-04-26T12:50:18.624Z,4.40
2023-04-26T12:51:20.547Z,3.15
2023-04-26T12:52:22.292Z,3.33
2023-04-26T12:53:24.065Z,3.15
2023-04-26T12:54:25.833Z,2.92
2023-04-26T12:55:28.550Z,4.63
2023-04-26T12:56:31.285Z,2.70
2023-04-26T12:57:33.059Z,2.50
2023-04-26T12:58:34.759Z,2.80
2023-04-26T12:59:36.548Z,2.72
2023-04-26T13:00:38.233Z,2.40
2023-04-26T13:01:40.048Z,3.88
2023-04-26T13:02:42.320Z,2.80
2023-04-26T13:03:44.508Z,3.38
2023-04-26T13:04:49.235Z,2.88
2023-04-26T13:05:51.836Z,3.08
2023-04-26T13:06:53.632Z,2.85
2023-04-26T13:07:55.613Z,6.05
2023-04-26T13:08:57.381Z,5.47
2023-04-26T13:10:03.551Z,5.00
2023-04-26T13:11:05.314Z,3.67
2023-04-26T13:12:07.248Z,3.20
2023-04-26T13:13:08.921Z,2.60
2023-04-26T13:14:10.791Z,2.83
2023-04-26T13:15:12.749Z,5.38
2023-04-26T13:16:14.543Z,2.78
2023-04-26T13:17:16.667Z,2.88
2023-04-26T13:18:18.659Z,2.90
2023-04-26T13:19:20.422Z,3.20
2023-04-26T13:20:23.712Z,2.25
2023-04-26T13:21:27.480Z,4.28
2023-04-26T13:22:29.275Z,2.40
2023-04-26T13:23:30.957Z,2.35
2023-04-26T13:24:32.678Z,4.03
2023-04-26T13:25:34.410Z,2.53
2023-04-26T13:26:36.110Z,3.67
2023-04-26T13:27:37.814Z,7.70
2023-04-26T13:28:39.576Z,3.53
2023-04-26T13:29:42.005Z,3.55
2023-04-26T13:30:43.704Z,4.63
2023-04-26T13:31:45.677Z,2.47
2023-04-26T13:32:47.532Z,3.13
2023-04-26T13:33:49.893Z,2.40
2023-04-26T13:34:51.988Z,3.17
2023-04-26T13:35:53.733Z,2.78
2023-04-26T13:36:57.155Z,4.55
2023-04-26T13:37:58.889Z,2.80
2023-04-26T13:39:00.638Z,2.40
2023-04-26T13:40:04.043Z,3.17
2023-04-26T13:41:05.746Z,2.97
2023-04-26T13:42:07.533Z,4.15
2023-04-26T13:43:09.273Z,6.75
2023-04-26T13:44:11.324Z,3.40
2023-04-26T13:45:13.643Z,5.22
2023-04-26T13:46:15.650Z,3.42
2023-04-26T13:47:17.893Z,4.57
2023-04-26T13:48:19.624Z,3.78
2023-04-26T13:49:23.106Z,3.80
2023-04-26T13:50:24.912Z,4.70
2023-04-26T13:51:27.337Z,3.95
2023-04-26T13:52:29.037Z,2.60
2023-04-26T13:53:30.770Z,3.00
2023-04-26T13:54:32.620Z,2.85
2023-04-26T13:55:34.338Z,3.17
2023-04-26T13:56:36.453Z,2.30
2023-04-26T13:57:38.156Z,2.40
2023-04-26T13:58:44.399Z,3.33
2023-04-26T13:59:46.469Z,3.10
2023-04-26T14:00:48.904Z,2.35
2023-04-26T14:01:54.278Z,2.63
2023-04-26T14:02:57.398Z,2.88
2023-04-26T14:03:59.272Z,3.00
2023-04-26T14:05:01.404Z,2.97